< < Back
Terminal Aerodrome Forecast


Current Version              Previous Versions:   1  2  3  4  5  6  7  8  9  

Terminal Aerodrome Forecast

286
FTUS44 KBMX 261722
TAFTCL
TAF
KTCL 261722Z 2618/2718 VRB04KT P6SM VCTS SCT050CB BKN150
     FM270000 VRB02KT P6SM BKN250=

Latest METAR

515
SAUS70 KWBC 262200 RRI
MTRTCL
METAR KTCL 262153Z 00000KT 10SM CLR 30/23 A3004 RMK AO2 SLP171
T03000228


USA.gov is the U.S. government's official web portal to all federal, state and local government web resources and services.